Time;durP1;ratioP1;P1;durP2;ratioP2;P2;SDS_P1;SDS_P2;PMS_P1;PMS_P2;Temp;Humidity;BMP_temperature;BMP_pressure;BME280_temperature;BME280_humidity;BME280_pressure;Samples;Min_cycle;Max_cycle;Signal;HPM_P1;HPM_P2
2021/09/23 00:00:35;;;;;;;5.88;2.80;;;18.60;54.60;;;;;;5042569;28;20045;-72
2021/09/23 00:03:10;;;;;;;7.70;3.55;;;18.60;54.30;;;;;;5041174;28;20021;-73
2021/09/23 00:05:37;;;;;;;5.80;2.92;;;18.60;54.10;;;;;;5042252;28;20033;-74
2021/09/23 00:08:04;;;;;;;6.55;3.33;;;18.50;54.30;;;;;;5043127;28;20098;-73
2021/09/23 00:10:34;;;;;;;6.85;2.90;;;18.50;54.30;;;;;;5041011;28;20017;-73
2021/09/23 00:13:03;;;;;;;10.65;4.50;;;18.50;54.60;;;;;;5040177;28;20479;-72
2021/09/23 00:15:30;;;;;;;7.95;4.78;;;18.50;55.30;;;;;;5039735;28;20025;-73
2021/09/23 00:17:59;;;;;;;9.65;4.80;;;18.40;55.90;;;;;;5045001;28;20511;-72
2021/09/23 00:20:29;;;;;;;12.50;4.95;;;18.40;56.80;;;;;;5042643;28;20017;-73
2021/09/23 00:22:56;;;;;;;14.23;5.60;;;18.40;57.60;;;;;;5040141;28;20701;-73
2021/09/23 00:25:25;;;;;;;11.85;5.68;;;18.40;58.20;;;;;;5043425;28;20111;-73
2021/09/23 00:27:54;;;;;;;12.77;6.97;;;18.40;58.40;;;;;;5040161;28;20075;-73
2021/09/23 00:30:21;;;;;;;15.23;6.03;;;18.40;58.60;;;;;;5044456;28;20399;-73
2021/09/23 00:32:49;;;;;;;10.85;6.75;;;18.30;59.00;;;;;;5043935;28;20493;-72
2021/09/23 00:35:17;;;;;;;16.90;6.95;;;18.30;59.30;;;;;;5038008;28;21296;-75
2021/09/23 00:37:44;;;;;;;13.52;7.25;;;18.30;59.90;;;;;;5039541;28;20057;-72
2021/09/23 00:40:12;;;;;;;15.93;7.20;;;18.30;60.00;;;;;;5041542;28;20103;-73
2021/09/23 00:42:40;;;;;;;14.07;6.97;;;18.30;60.40;;;;;;5042077;28;20025;-73
2021/09/23 00:45:08;;;;;;;13.70;7.15;;;18.20;60.20;;;;;;5040599;28;20041;-73
2021/09/23 00:47:35;;;;;;;16.42;7.95;;;18.20;60.50;;;;;;5039675;28;20021;-73
2021/09/23 00:50:02;;;;;;;15.45;9.95;;;18.20;60.40;;;;;;5043443;28;20021;-74
2021/09/23 00:52:31;;;;;;;17.15;8.35;;;18.10;60.60;;;;;;5042256;28;20017;-72
2021/09/23 00:54:58;;;;;;;15.57;8.93;;;18.10;60.60;;;;;;5041250;28;20040;-72
2021/09/23 00:57:25;;;;;;;17.63;8.13;;;18.00;60.50;;;;;;5039086;28;20087;-73
2021/09/23 00:59:53;;;;;;;49.22;32.97;;;18.00;60.90;;;;;;5044027;28;20127;-72
2021/09/23 01:02:21;;;;;;;29.95;16.98;;;18.10;60.90;;;;;;5039439;28;20017;-72
2021/09/23 01:04:48;;;;;;;22.08;8.52;;;18.10;60.70;;;;;;5041900;28;20032;-72
2021/09/23 01:07:18;;;;;;;11.88;6.82;;;18.10;60.40;;;;;;5043242;28;20100;-73
2021/09/23 01:09:55;;;;;;;13.98;6.95;;;18.10;60.20;;;;;;5041085;28;20030;-72
2021/09/23 01:12:26;;;;;;;12.25;5.95;;;18.10;59.90;;;;;;5039783;28;20404;-72
2021/09/23 01:14:54;;;;;;;10.18;6.15;;;18.00;59.90;;;;;;5045188;28;20431;-73
2021/09/23 01:17:22;;;;;;;15.57;6.20;;;18.00;59.90;;;;;;5041983;28;20468;-72
2021/09/23 01:19:49;;;;;;;16.63;6.10;;;18.00;59.80;;;;;;5039860;28;20488;-72
2021/09/23 01:22:16;;;;;;;10.88;5.88;;;17.90;59.60;;;;;;5038587;28;20025;-72
2021/09/23 01:24:43;;;;;;;12.73;5.50;;;17.90;59.60;;;;;;5038729;28;20080;-72
2021/09/23 01:27:11;;;;;;;13.45;6.55;;;17.90;59.40;;;;;;5040322;28;20009;-72
2021/09/23 01:29:39;;;;;;;13.55;5.45;;;17.90;59.30;;;;;;5040400;28;20144;-72
2021/09/23 01:32:06;;;;;;;11.98;6.20;;;17.90;59.30;;;;;;5042379;28;20108;-72
2021/09/23 01:34:34;;;;;;;11.55;5.00;;;17.80;59.30;;;;;;5039406;28;20047;-72
2021/09/23 01:37:00;;;;;;;11.57;5.88;;;17.80;59.50;;;;;;5040483;28;20017;-72
2021/09/23 01:39:28;;;;;;;13.38;5.70;;;17.80;59.50;;;;;;5041907;28;20021;-78
2021/09/23 01:41:55;;;;;;;12.30;5.85;;;17.80;59.20;;;;;;5043973;28;20026;-72
2021/09/23 01:44:22;;;;;;;40.63;27.35;;;17.70;59.20;;;;;;5037163;28;20023;-72
2021/09/23 01:46:49;;;;;;;42.47;28.60;;;17.70;59.20;;;;;;5040800;28;20028;-72
2021/09/23 01:49:15;;;;;;;19.42;12.35;;;17.70;58.90;;;;;;5042600;28;20026;-72
2021/09/23 01:51:42;;;;;;;14.27;6.53;;;17.70;58.90;;;;;;5040952;28;20100;-71
2021/09/23 01:54:08;;;;;;;10.13;5.20;;;17.70;58.90;;;;;;5040746;28;20424;-72
2021/09/23 01:56:35;;;;;;;10.35;5.47;;;17.60;59.00;;;;;;5040706;28;20017;-72
2021/09/23 01:59:02;;;;;;;9.35;5.40;;;17.60;59.50;;;;;;5043824;28;20055;-72
2021/09/23 02:01:29;;;;;;;13.73;5.68;;;17.50;59.70;;;;;;5041174;28;20468;-73
2021/09/23 02:03:55;;;;;;;14.65;5.57;;;17.50;60.00;;;;;;5044461;28;20022;-71
2021/09/23 02:06:22;;;;;;;14.48;6.60;;;17.50;60.40;;;;;;5039068;28;20017;-72
2021/09/23 02:08:48;;;;;;;15.20;6.97;;;17.40;60.40;;;;;;5039179;28;20017;-72
2021/09/23 02:11:15;;;;;;;14.07;6.07;;;17.40;60.70;;;;;;5039326;28;20488;-72
2021/09/23 02:13:41;;;;;;;11.45;5.22;;;17.40;60.70;;;;;;5045000;28;20303;-71
2021/09/23 02:16:08;;;;;;;14.13;6.13;;;17.30;60.80;;;;;;5040553;28;20029;-72
2021/09/23 02:18:35;;;;;;;12.00;5.80;;;17.20;61.00;;;;;;5042433;28;20009;-71
2021/09/23 02:21:01;;;;;;;12.60;7.32;;;17.20;61.20;;;;;;5040883;28;20025;-71
2021/09/23 02:23:28;;;;;;;9.13;5.15;;;17.20;61.20;;;;;;5046481;28;20091;-71
2021/09/23 02:25:54;;;;;;;14.32;7.55;;;17.20;61.20;;;;;;5044436;28;20033;-71
2021/09/23 02:28:21;;;;;;;7.82;6.10;;;17.10;61.30;;;;;;5038827;28;20052;-72
2021/09/23 02:30:47;;;;;;;14.07;6.03;;;17.10;61.40;;;;;;5046069;28;20542;-71
2021/09/23 02:33:14;;;;;;;10.23;5.30;;;17.00;61.40;;;;;;5045529;28;20513;-72
2021/09/23 02:35:40;;;;;;;10.75;6.20;;;17.00;61.60;;;;;;5042058;28;20751;-71
2021/09/23 02:38:07;;;;;;;9.07;5.68;;;17.00;61.70;;;;;;5044912;28;20060;-72
2021/09/23 02:40:34;;;;;;;13.02;6.65;;;16.90;61.80;;;;;;5040811;28;20109;-72
2021/09/23 02:43:01;;;;;;;12.93;6.30;;;16.90;61.80;;;;;;5042266;28;20490;-71
2021/09/23 02:45:27;;;;;;;13.65;6.93;;;16.90;61.90;;;;;;5044531;28;20541;-72
2021/09/23 02:47:54;;;;;;;16.17;6.57;;;16.90;62.00;;;;;;5045465;28;20756;-72
2021/09/23 02:50:20;;;;;;;15.70;7.68;;;16.90;61.90;;;;;;5043071;28;20025;-72
2021/09/23 02:52:47;;;;;;;13.43;6.35;;;16.80;61.70;;;;;;5038007;28;20025;-72
2021/09/23 02:55:13;;;;;;;9.35;6.20;;;16.80;61.90;;;;;;5046308;28;20072;-72
2021/09/23 02:57:40;;;;;;;11.13;6.85;;;16.80;61.70;;;;;;5042967;28;20040;-72
2021/09/23 03:00:07;;;;;;;17.67;7.63;;;16.80;61.80;;;;;;5043310;28;20547;-72
2021/09/23 03:02:33;;;;;;;12.70;6.53;;;16.80;61.90;;;;;;5041321;28;20097;-73
2021/09/23 03:05:00;;;;;;;10.77;6.15;;;16.80;61.90;;;;;;5041196;28;20024;-73
2021/09/23 03:07:27;;;;;;;10.18;6.28;;;16.80;61.90;;;;;;5042906;28;20017;-72
2021/09/23 03:09:53;;;;;;;10.25;5.90;;;16.80;61.90;;;;;;5041482;28;20468;-72
2021/09/23 03:12:19;;;;;;;13.23;5.93;;;16.80;62.30;;;;;;5042797;28;20871;-71
2021/09/23 03:14:46;;;;;;;12.35;5.82;;;16.80;61.30;;;;;;5040393;28;20030;-72
2021/09/23 03:17:13;;;;;;;8.00;4.60;;;16.80;61.20;;;;;;5046456;28;20717;-73
2021/09/23 03:19:39;;;;;;;11.68;6.80;;;16.80;60.80;;;;;;5043709;28;20530;-72
2021/09/23 03:22:06;;;;;;;10.32;4.85;;;16.70;60.70;;;;;;5042589;28;20057;-71
2021/09/23 03:24:33;;;;;;;11.95;4.85;;;16.60;60.50;;;;;;5038807;28;20024;-72
2021/09/23 03:26:59;;;;;;;13.73;5.78;;;16.50;60.90;;;;;;5042325;28;20031;-72
2021/09/23 03:29:26;;;;;;;13.63;5.47;;;16.50;61.10;;;;;;5038197;28;20021;-72
2021/09/23 03:31:52;;;;;;;12.20;5.03;;;16.50;61.20;;;;;;5046658;28;20020;-72
2021/09/23 03:34:19;;;;;;;10.80;4.43;;;16.40;61.40;;;;;;5041498;28;20160;-72
2021/09/23 03:36:45;;;;;;;9.90;4.68;;;16.40;61.20;;;;;;5045057;28;20025;-71
2021/09/23 03:39:13;;;;;;;12.93;5.15;;;16.40;61.20;;;;;;5039899;28;20018;-71
2021/09/23 03:41:40;;;;;;;7.72;4.25;;;16.30;61.20;;;;;;5040738;28;20022;-71
2021/09/23 03:44:06;;;;;;;6.50;4.65;;;16.30;61.30;;;;;;5042131;28;20418;-71
2021/09/23 03:46:33;;;;;;;14.88;4.68;;;16.30;61.30;;;;;;5041921;28;20452;-71
2021/09/23 03:49:00;;;;;;;8.73;4.40;;;16.30;61.50;;;;;;5046016;28;20487;-71
2021/09/23 03:51:27;;;;;;;11.55;4.55;;;16.30;61.40;;;;;;5043064;28;20013;-71
2021/09/23 03:53:53;;;;;;;5.70;4.28;;;16.30;61.20;;;;;;5045497;28;20017;-71
2021/09/23 03:56:20;;;;;;;7.32;4.50;;;16.30;61.20;;;;;;5041778;28;20029;-71
2021/09/23 03:58:46;;;;;;;9.85;4.40;;;16.30;61.20;;;;;;5041121;28;20024;-71
2021/09/23 04:01:13;;;;;;;10.70;4.82;;;16.30;61.20;;;;;;5041131;28;20036;-71
2021/09/23 04:03:40;;;;;;;16.92;5.57;;;16.30;60.90;;;;;;5040362;28;20100;-72
2021/09/23 04:06:06;;;;;;;11.48;4.40;;;16.20;61.10;;;;;;5043787;28;20062;-71
2021/09/23 04:08:33;;;;;;;10.60;4.32;;;16.20;61.30;;;;;;5037164;28;20021;-69
2021/09/23 04:10:59;;;;;;;33.78;20.98;;;16.20;61.70;;;;;;5042330;28;20017;-71
2021/09/23 04:13:26;;;;;;;32.22;18.55;;;16.20;61.90;;;;;;5043575;28;20013;-72
2021/09/23 04:15:52;;;;;;;24.27;11.57;;;16.20;62.50;;;;;;5046309;28;20024;-70
2021/09/23 04:18:18;;;;;;;13.73;5.32;;;16.20;62.40;;;;;;5048204;28;20017;-69
2021/09/23 04:20:46;;;;;;;12.90;4.38;;;16.30;62.30;;;;;;5040988;28;20027;-68
2021/09/23 04:23:13;;;;;;;12.38;4.55;;;16.30;61.90;;;;;;5044341;28;20010;-73
2021/09/23 04:25:40;;;;;;;10.75;5.00;;;16.40;61.40;;;;;;5042611;28;20362;-70
2021/09/23 04:28:07;;;;;;;12.48;4.00;;;16.50;60.90;;;;;;5047824;28;20024;-67
2021/09/23 04:30:33;;;;;;;11.90;3.83;;;16.50;60.20;;;;;;5038206;28;20021;-71
2021/09/23 04:33:00;;;;;;;11.85;4.22;;;16.60;59.60;;;;;;5039789;28;20112;-70
2021/09/23 04:35:27;;;;;;;26.35;17.30;;;16.60;59.10;;;;;;5040135;28;20473;-70
2021/09/23 04:37:53;;;;;;;24.08;11.55;;;16.60;58.10;;;;;;5044787;28;20438;-68
2021/09/23 04:40:20;;;;;;;11.52;4.22;;;16.70;57.80;;;;;;5042265;28;20107;-70
2021/09/23 04:42:47;;;;;;;12.48;3.28;;;16.70;57.20;;;;;;5047890;28;20017;-75
2021/09/23 04:45:13;;;;;;;11.98;3.60;;;16.70;56.80;;;;;;5042716;28;20009;-75
2021/09/23 04:47:40;;;;;;;10.60;2.85;;;16.80;56.20;;;;;;5039726;28;20013;-76
2021/09/23 04:50:07;;;;;;;16.70;5.32;;;16.80;55.70;;;;;;5045834;28;20019;-75
2021/09/23 04:52:33;;;;;;;6.53;2.75;;;16.90;55.40;;;;;;5043185;28;20028;-70
2021/09/23 04:55:00;;;;;;;12.18;4.80;;;16.90;55.20;;;;;;5040034;28;20032;-68
2021/09/23 04:57:26;;;;;;;10.93;3.30;;;16.90;55.10;;;;;;5040199;28;20037;-68
2021/09/23 04:59:53;;;;;;;5.55;2.75;;;17.00;55.70;;;;;;5043173;28;20046;-68
2021/09/23 05:02:19;;;;;;;11.15;3.33;;;17.00;55.80;;;;;;5043152;28;20018;-69
2021/09/23 05:04:47;;;;;;;8.70;2.53;;;17.00;55.80;;;;;;5043188;28;20060;-70
2021/09/23 05:07:13;;;;;;;11.73;3.22;;;17.10;56.00;;;;;;5042171;28;20017;-72
2021/09/23 05:09:40;;;;;;;10.73;2.90;;;17.10;56.60;;;;;;5038527;28;20021;-69
2021/09/23 05:12:06;;;;;;;16.55;3.95;;;17.10;56.90;;;;;;5040999;28;20095;-70
2021/09/23 05:14:33;;;;;;;11.13;3.15;;;17.10;57.30;;;;;;5039915;28;20033;-72
2021/09/23 05:17:00;;;;;;;9.02;2.58;;;17.20;57.90;;;;;;5035861;28;20025;-69
2021/09/23 05:19:26;;;;;;;25.38;4.25;;;17.20;58.30;;;;;;5034790;28;20255;-72
2021/09/23 05:21:53;;;;;;;10.43;3.67;;;17.20;58.60;;;;;;5041106;28;20021;-70
2021/09/23 05:24:19;;;;;;;10.40;2.40;;;17.30;59.20;;;;;;5037265;28;20028;-68
2021/09/23 05:26:46;;;;;;;4.47;2.80;;;17.30;59.10;;;;;;5038403;28;20362;-73
2021/09/23 05:29:12;;;;;;;3.85;2.08;;;17.30;59.10;;;;;;5035477;28;20022;-69
2021/09/23 05:31:42;;;;;;;9.55;2.60;;;17.40;58.90;;;;;;5036949;28;20026;-70
2021/09/23 05:34:08;;;;;;;10.18;3.28;;;17.40;58.80;;;;;;5036181;28;20507;-68
2021/09/23 05:36:35;;;;;;;7.70;3.13;;;17.40;59.00;;;;;;5036550;28;20030;-70
2021/09/23 05:39:03;;;;;;;12.23;2.88;;;17.50;58.90;;;;;;5038180;28;20376;-71
2021/09/23 05:41:31;;;;;;;22.08;4.93;;;17.50;58.70;;;;;;5036388;28;20027;-70
2021/09/23 05:44:00;;;;;;;14.20;3.20;;;17.50;58.50;;;;;;5037803;28;20014;-70
2021/09/23 05:46:28;;;;;;;7.85;3.50;;;17.50;58.50;;;;;;5034258;28;20024;-69
2021/09/23 05:48:54;;;;;;;8.70;2.33;;;17.50;58.60;;;;;;5044336;28;20113;-71
2021/09/23 05:51:21;;;;;;;11.57;3.85;;;17.60;58.50;;;;;;5042129;28;20012;-70
2021/09/23 05:53:47;;;;;;;8.52;2.88;;;17.60;58.40;;;;;;5040992;28;20542;-71
2021/09/23 05:56:14;;;;;;;10.57;2.60;;;17.70;58.60;;;;;;5040946;28;20395;-69
2021/09/23 05:58:41;;;;;;;7.10;2.17;;;17.70;58.90;;;;;;5043746;28;20089;-72
2021/09/23 06:01:07;;;;;;;9.98;2.40;;;17.70;59.20;;;;;;5045433;28;20022;-70
2021/09/23 06:03:34;;;;;;;10.93;2.63;;;17.70;59.40;;;;;;5043508;28;20021;-70
2021/09/23 06:06:00;;;;;;;8.25;3.53;;;17.80;59.50;;;;;;5041870;28;20027;-70
2021/09/23 06:08:27;;;;;;;8.35;2.55;;;17.90;59.40;;;;;;5044740;28;20473;-70
2021/09/23 06:10:53;;;;;;;12.60;2.97;;;17.90;59.30;;;;;;5047393;28;20555;-69
2021/09/23 06:13:19;;;;;;;11.63;2.90;;;18.00;59.20;;;;;;5043555;28;20024;-69
2021/09/23 06:15:47;;;;;;;11.82;2.85;;;18.00;58.80;;;;;;5043566;28;20095;-70
2021/09/23 06:18:13;;;;;;;10.68;2.75;;;18.10;58.60;;;;;;5045525;28;20435;-70
2021/09/23 06:20:43;;;;;;;12.50;3.58;;;18.10;58.60;;;;;;5048245;28;20014;-71
2021/09/23 06:23:10;;;;;;;12.75;2.72;;;18.20;58.70;;;;;;5048214;28;20384;-68
2021/09/23 06:25:38;;;;;;;12.68;3.35;;;18.20;58.60;;;;;;5044889;28;20087;-72
2021/09/23 06:28:04;;;;;;;13.32;3.15;;;18.20;58.40;;;;;;5043800;28;20031;-70
2021/09/23 06:30:31;;;;;;;17.95;4.65;;;18.20;58.30;;;;;;5044888;28;20013;-71
2021/09/23 06:32:58;;;;;;;9.85;2.85;;;18.30;58.30;;;;;;5043632;28;20052;-71
2021/09/23 06:35:24;;;;;;;16.00;4.78;;;18.30;58.40;;;;;;5041768;28;20143;-69
2021/09/23 06:37:51;;;;;;;8.02;3.05;;;18.30;58.50;;;;;;5043666;28;20097;-69
2021/09/23 06:40:17;;;;;;;13.20;4.72;;;18.30;58.60;;;;;;5047781;28;20361;-69
2021/09/23 06:42:44;;;;;;;14.15;2.85;;;18.40;58.80;;;;;;5041935;28;20632;-70
2021/09/23 06:45:11;;;;;;;12.48;4.15;;;18.40;59.00;;;;;;5046937;28;20021;-70
2021/09/23 06:47:37;;;;;;;11.38;3.75;;;18.40;58.90;;;;;;5039753;28;20013;-70
2021/09/23 06:50:04;;;;;;;14.23;4.03;;;18.50;59.10;;;;;;5047629;28;20033;-70
2021/09/23 06:52:31;;;;;;;14.52;4.10;;;18.50;59.10;;;;;;5043954;28;20049;-72
2021/09/23 06:54:58;;;;;;;12.27;3.80;;;18.50;59.30;;;;;;5037654;28;20029;-71
2021/09/23 06:57:24;;;;;;;7.60;2.80;;;18.60;59.60;;;;;;5046455;28;20040;-70
2021/09/23 06:59:51;;;;;;;13.68;3.17;;;18.60;59.40;;;;;;5045406;28;20080;-69
2021/09/23 07:02:17;;;;;;;7.53;3.10;;;18.70;59.30;;;;;;5044212;28;20098;-72
2021/09/23 07:04:44;;;;;;;11.57;3.72;;;18.80;59.20;;;;;;5041483;28;20044;-69
2021/09/23 07:07:10;;;;;;;11.73;3.08;;;18.80;59.20;;;;;;5047984;28;20013;-70
2021/09/23 07:09:37;;;;;;;10.15;3.25;;;18.90;59.00;;;;;;5044496;28;20026;-71
2021/09/23 07:12:03;;;;;;;10.35;3.70;;;19.00;58.60;;;;;;5043097;28;20016;-70
2021/09/23 07:14:30;;;;;;;10.63;3.20;;;19.10;58.30;;;;;;5042670;28;20082;-70
2021/09/23 07:16:57;;;;;;;11.77;3.33;;;19.10;57.90;;;;;;5040292;28;20025;-70
2021/09/23 07:19:23;;;;;;;10.05;3.30;;;19.20;57.20;;;;;;5044250;28;20017;-70
2021/09/23 07:21:50;;;;;;;13.27;2.83;;;19.30;57.20;;;;;;5042790;28;20056;-70
2021/09/23 07:24:16;;;;;;;10.57;2.78;;;19.30;57.10;;;;;;5043583;28;20378;-73
2021/09/23 07:26:43;;;;;;;8.32;2.38;;;19.40;56.90;;;;;;5042388;28;20044;-71
2021/09/23 07:29:14;;;;;;;15.68;2.78;;;19.50;56.20;;;;;;5041430;28;20021;-72
2021/09/23 07:31:42;;;;;;;12.38;3.03;;;19.60;56.10;;;;;;5044439;28;20105;-72
2021/09/23 07:34:09;;;;;;;16.10;2.78;;;19.70;55.70;;;;;;5039459;28;20071;-70
2021/09/23 07:36:36;;;;;;;15.23;3.80;;;19.70;55.50;;;;;;5042546;28;20060;-71
2021/09/23 07:39:08;;;;;;;14.20;2.70;;;19.80;55.50;;;;;;5042145;28;20052;-71
2021/09/23 07:41:37;;;;;;;11.85;2.88;;;19.80;55.70;;;;;;5036853;28;20021;-72
2021/09/23 07:44:09;;;;;;;10.07;2.90;;;19.90;55.40;;;;;;5039504;28;20014;-72
2021/09/23 07:46:36;;;;;;;10.32;2.78;;;20.00;55.40;;;;;;5040588;28;20503;-71
2021/09/23 07:49:04;;;;;;;9.40;2.28;;;20.10;55.90;;;;;;5040094;28;20101;-71
2021/09/23 07:51:32;;;;;;;15.93;3.30;;;20.10;55.90;;;;;;5039468;28;20139;-72
2021/09/23 07:53:58;;;;;;;16.05;4.60;;;20.20;56.50;;;;;;5039051;28;20389;-72
2021/09/23 07:56:25;;;;;;;13.35;3.83;;;20.30;56.60;;;;;;5039320;28;20029;-71
2021/09/23 07:58:51;;;;;;;10.00;2.80;;;20.40;57.20;;;;;;5041764;28;20068;-71
2021/09/23 08:01:18;;;;;;;11.48;2.63;;;20.50;57.30;;;;;;5037448;28;20052;-71
2021/09/23 08:03:44;;;;;;;8.02;2.67;;;20.50;57.40;;;;;;5038490;28;20372;-72
2021/09/23 08:06:11;;;;;;;14.35;3.20;;;20.60;57.00;;;;;;5041684;28;20013;-72
2021/09/23 08:08:37;;;;;;;11.98;3.70;;;20.70;57.10;;;;;;5036795;28;20614;-71
2021/09/23 08:11:04;;;;;;;13.13;2.45;;;20.80;58.20;;;;;;5039718;28;20052;-71
2021/09/23 08:13:30;;;;;;;11.60;3.65;;;20.90;57.30;;;;;;5037078;28;20328;-71
2021/09/23 08:15:57;;;;;;;15.55;3.65;;;21.00;56.80;;;;;;5042756;28;21027;-70
2021/09/23 08:18:23;;;;;;;16.25;2.85;;;21.10;56.20;;;;;;5037710;28;20009;-71
2021/09/23 08:20:50;;;;;;;17.42;3.42;;;21.30;56.90;;;;;;5038680;28;20048;-71
2021/09/23 08:23:18;;;;;;;13.55;3.22;;;21.40;56.90;;;;;;5042001;28;20025;-71
2021/09/23 08:25:45;;;;;;;14.05;3.60;;;21.50;56.40;;;;;;5038867;28;20380;-71
2021/09/23 08:28:12;;;;;;;7.80;2.70;;;21.50;55.80;;;;;;5041826;28;20036;-71
2021/09/23 08:30:41;;;;;;;13.98;2.95;;;21.60;55.90;;;;;;5037676;28;20029;-72
2021/09/23 08:33:07;;;;;;;11.45;2.17;;;21.70;54.10;;;;;;5041450;28;20021;-71
2021/09/23 08:35:34;;;;;;;7.40;2.80;;;21.80;51.90;;;;;;5036356;28;20025;-71
2021/09/23 08:38:00;;;;;;;18.80;3.70;;;21.90;50.90;;;;;;5036539;28;20021;-71
2021/09/23 08:40:27;;;;;;;11.32;3.78;;;21.90;54.10;;;;;;5042591;28;20017;-72
2021/09/23 08:42:53;;;;;;;15.75;3.20;;;21.90;54.30;;;;;;5036528;28;20067;-72
2021/09/23 08:45:21;;;;;;;10.15;3.78;;;21.80;55.20;;;;;;5036292;28;20032;-71
2021/09/23 08:47:48;;;;;;;13.05;3.88;;;21.70;55.70;;;;;;5038784;28;20063;-73
2021/09/23 08:50:16;;;;;;;20.50;4.18;;;21.60;55.70;;;;;;5041257;28;20097;-72
2021/09/23 08:52:44;;;;;;;11.55;3.58;;;21.60;55.60;;;;;;5039396;28;20136;-73
2021/09/23 08:55:24;;;;;;;16.02;4.03;;;21.60;56.50;;;;;;5039654;28;20616;-71
2021/09/23 08:57:51;;;;;;;17.25;4.95;;;21.60;57.60;;;;;;5040077;28;20091;-72
2021/09/23 09:00:18;;;;;;;16.98;3.90;;;21.50;58.10;;;;;;5037521;28;20119;-72
2021/09/23 09:03:09;;;;;;;15.38;4.55;;;21.50;58.70;;;;;;5036634;28;20017;-71
2021/09/23 09:05:37;;;;;;;7.65;3.70;;;21.40;59.30;;;;;;5039603;28;20094;-71
2021/09/23 09:08:10;;;;;;;17.05;3.90;;;21.40;60.10;;;;;;5038033;28;20108;-71
2021/09/23 09:10:37;;;;;;;12.82;4.20;;;21.40;61.20;;;;;;5037360;28;20456;-71
2021/09/23 09:13:07;;;;;;;8.57;3.25;;;21.30;62.00;;;;;;5037646;28;20021;-71
2021/09/23 09:15:45;;;;;;;15.02;4.13;;;21.20;62.80;;;;;;5038408;28;20036;-70
2021/09/23 09:18:22;;;;;;;14.65;4.25;;;21.20;64.00;;;;;;5039458;28;20029;-71
2021/09/23 09:21:01;;;;;;;14.63;4.07;;;21.10;64.50;;;;;;5036711;28;20432;-71
2021/09/23 09:23:39;;;;;;;15.38;4.63;;;21.10;64.90;;;;;;5039489;28;20483;-71
2021/09/23 09:26:07;;;;;;;17.83;4.18;;;21.10;64.80;;;;;;5037112;28;20025;-70
2021/09/23 09:28:44;;;;;;;15.82;4.88;;;21.10;64.90;;;;;;5039022;28;20357;-70
2021/09/23 09:31:10;;;;;;;14.68;4.32;;;21.00;64.90;;;;;;5038329;28;20365;-70
2021/09/23 09:33:42;;;;;;;12.77;3.95;;;21.00;65.40;;;;;;5040129;28;20032;-69
2021/09/23 09:36:30;;;;;;;18.02;4.38;;;20.90;65.60;;;;;;5036458;28;20033;-69
2021/09/23 09:39:04;;;;;;;20.10;4.13;;;20.80;65.80;;;;;;5036714;28;20488;-69
2021/09/23 09:41:34;;;;;;;16.75;4.30;;;20.80;66.20;;;;;;5034318;28;20408;-69
2021/09/23 09:44:04;;;;;;;21.33;4.97;;;20.90;66.70;;;;;;5039171;28;20034;-70
2021/09/23 09:46:36;;;;;;;19.00;4.90;;;20.90;66.90;;;;;;5041428;28;20488;-69
2021/09/23 09:49:03;;;;;;;20.58;4.75;;;20.90;67.30;;;;;;5037865;28;20078;-70
2021/09/23 09:51:44;;;;;;;19.63;4.22;;;20.90;67.40;;;;;;5040328;28;20388;-70
2021/09/23 09:54:12;;;;;;;16.63;4.20;;;20.90;67.80;;;;;;5037246;28;20109;-70
2021/09/23 09:56:41;;;;;;;15.50;2.97;;;21.00;67.60;;;;;;5036852;28;20041;-70
2021/09/23 09:59:12;;;;;;;13.50;3.10;;;21.00;67.00;;;;;;5038512;28;20120;-70
2021/09/23 10:01:41;;;;;;;13.50;4.13;;;21.10;66.80;;;;;;5035566;28;20083;-70
2021/09/23 10:04:09;;;;;;;19.38;4.25;;;21.00;67.20;;;;;;5036491;28;20045;-70
2021/09/23 10:06:38;;;;;;;18.83;5.00;;;21.10;67.40;;;;;;5038293;28;20017;-70
2021/09/23 10:09:06;;;;;;;19.75;4.90;;;21.00;67.60;;;;;;5038725;28;20063;-70
2021/09/23 10:11:33;;;;;;;15.65;4.25;;;21.00;67.90;;;;;;5039093;28;20020;-70
2021/09/23 10:14:02;;;;;;;19.73;5.28;;;21.00;68.40;;;;;;5039996;28;20032;-70
2021/09/23 10:16:28;;;;;;;22.15;5.60;;;21.00;68.80;;;;;;5041015;28;20030;-70
2021/09/23 10:18:56;;;;;;;18.95;4.88;;;21.00;69.50;;;;;;5036943;28;20113;-70
2021/09/23 10:21:27;;;;;;;19.95;4.68;;;21.10;69.60;;;;;;5041413;28;20484;-70
2021/09/23 10:23:55;;;;;;;16.33;4.07;;;21.10;69.60;;;;;;5037704;28;20021;-70
2021/09/23 10:26:25;;;;;;;17.73;6.05;;;21.20;69.60;;;;;;5039200;28;20373;-70
2021/09/23 10:28:55;;;;;;;21.77;4.95;;;21.20;69.30;;;;;;5036958;28;20017;-70
2021/09/23 10:31:30;;;;;;;19.67;5.20;;;21.20;69.60;;;;;;5040202;28;20548;-71
2021/09/23 10:34:02;;;;;;;16.50;5.40;;;21.20;70.00;;;;;;5038163;28;20017;-71
2021/09/23 10:36:34;;;;;;;12.70;5.57;;;21.30;70.40;;;;;;5035281;28;20361;-70
2021/09/23 10:39:06;;;;;;;22.63;5.43;;;21.20;69.60;;;;;;5035739;28;20496;-70
2021/09/23 10:41:36;;;;;;;23.15;4.78;;;21.20;69.40;;;;;;5037007;28;20009;-70
2021/09/23 10:44:04;;;;;;;14.73;4.13;;;21.20;68.70;;;;;;5038959;28;20052;-70
2021/09/23 10:46:32;;;;;;;19.48;5.38;;;21.20;66.90;;;;;;5040670;28;20084;-69
2021/09/23 10:49:01;;;;;;;16.20;3.85;;;21.40;66.60;;;;;;5042849;28;20476;-69
2021/09/23 10:51:30;;;;;;;16.58;4.35;;;21.50;64.90;;;;;;5046095;28;20013;-69
2021/09/23 10:53:59;;;;;;;18.45;4.93;;;21.60;64.00;;;;;;5042545;28;20066;-69
2021/09/23 10:56:28;;;;;;;22.33;4.15;;;21.80;62.40;;;;;;5039907;28;20502;-70
2021/09/23 10:58:57;;;;;;;20.35;4.80;;;21.80;62.00;;;;;;5042603;28;20123;-70
2021/09/23 11:01:36;;;;;;;19.73;5.88;;;21.90;63.00;;;;;;5044800;28;20906;-70
2021/09/23 11:04:03;;;;;;;17.88;5.22;;;21.90;63.30;;;;;;5043397;28;20415;-70
2021/09/23 11:06:39;;;;;;;16.67;4.35;;;21.90;64.20;;;;;;5039746;28;20100;-70
2021/09/23 11:09:22;;;;;;;18.15;4.95;;;21.90;65.10;;;;;;5043039;28;20016;-70
2021/09/23 11:11:49;;;;;;;21.27;7.18;;;22.00;65.80;;;;;;5042054;28;20013;-70
2021/09/23 11:14:17;;;;;;;22.00;4.43;;;22.20;65.30;;;;;;5037865;28;20020;-70
2021/09/23 11:16:48;;;;;;;20.40;4.53;;;22.30;64.20;;;;;;5040190;28;20080;-72
2021/09/23 11:19:17;;;;;;;18.20;4.35;;;22.40;62.50;;;;;;5043096;28;20032;-71
2021/09/23 11:21:44;;;;;;;13.07;4.45;;;22.50;61.40;;;;;;5039507;28;20022;-76
2021/09/23 11:24:11;;;;;;;22.42;4.22;;;22.60;59.40;;;;;;5042029;28;20036;-75
2021/09/23 11:26:38;;;;;;;19.02;4.60;;;22.50;58.70;;;;;;5038447;28;20078;-72
2021/09/23 11:29:05;;;;;;;17.88;5.28;;;22.70;58.10;;;;;;5043533;28;20025;-73
2021/09/23 11:31:52;;;;;;;11.50;3.10;;;22.80;57.60;;;;;;5037588;28;20014;-72
2021/09/23 11:34:39;;;;;;;13.15;3.55;;;22.80;57.10;;;;;;5044542;28;20498;-72
2021/09/23 11:37:09;;;;;;;9.68;3.38;;;22.90;57.10;;;;;;5041081;28;20029;-71
2021/09/23 11:39:36;;;;;;;19.42;4.53;;;23.00;57.90;;;;;;5041843;28;20399;-70
2021/09/23 11:42:11;;;;;;;15.00;3.85;;;23.00;58.40;;;;;;5040003;28;20024;-71
2021/09/23 11:44:38;;;;;;;;;;;23.20;57.80;;;;;;5041666;28;20396;-70
2021/09/23 11:47:05;;;;;;;17.25;3.25;;;23.20;57.20;;;;;;5046176;28;19911;-70
2021/09/23 11:49:31;;;;;;;13.73;2.72;;;23.30;56.80;;;;;;5040863;28;20464;-71
2021/09/23 11:51:58;;;;;;;13.50;3.25;;;23.40;56.30;;;;;;5042691;28;20017;-69
2021/09/23 11:54:25;;;;;;;12.30;3.03;;;23.50;56.00;;;;;;5041306;28;20020;-70
2021/09/23 11:56:52;;;;;;;20.58;4.78;;;23.50;55.60;;;;;;5039349;28;20116;-70
2021/09/23 11:59:22;;;;;;;14.63;5.05;;;23.60;55.30;;;;;;5042444;28;20037;-70
2021/09/23 12:02:05;;;;;;;16.95;4.53;;;23.70;55.30;;;;;;5039721;28;20025;-70
2021/09/23 12:04:33;;;;;;;14.73;3.95;;;23.70;55.50;;;;;;5038102;28;20070;-70
2021/09/23 12:07:04;;;;;;;16.23;3.35;;;23.80;55.60;;;;;;5041551;28;20021;-72
2021/09/23 12:09:33;;;;;;;13.90;3.20;;;23.80;55.60;;;;;;5040545;28;20017;-71
2021/09/23 12:12:03;;;;;;;18.73;4.35;;;23.90;55.40;;;;;;5043599;28;20464;-71
2021/09/23 12:14:30;;;;;;;12.20;3.05;;;23.90;55.30;;;;;;5040190;28;20495;-71
2021/09/23 12:17:03;;;;;;;17.02;4.03;;;24.00;55.40;;;;;;5039861;28;20024;-71
2021/09/23 12:19:31;;;;;;;12.40;3.10;;;24.00;55.40;;;;;;5040797;28;20802;-71
2021/09/23 12:21:58;;;;;;;12.50;3.75;;;24.00;55.70;;;;;;5039827;28;20116;-71
2021/09/23 12:24:35;;;;;;;13.50;3.17;;;24.00;55.60;;;;;;5041462;28;20048;-70
2021/09/23 12:27:03;;;;;;;14.23;3.38;;;24.00;56.30;;;;;;5041681;28;20040;-70
2021/09/23 12:29:31;;;;;;;12.73;3.63;;;24.00;55.90;;;;;;5039990;28;20025;-71
2021/09/23 12:32:48;;;;;;;13.95;3.05;;;23.90;56.00;;;;;;5039210;28;20025;-70
2021/09/23 12:35:55;;;;;;;16.83;4.78;;;24.00;55.90;;;;;;5040752;28;20481;-70
2021/09/23 12:38:26;;;;;;;14.05;3.85;;;23.90;55.70;;;;;;5040947;28;20123;-70
2021/09/23 12:40:53;;;;;;;12.65;3.53;;;23.90;55.90;;;;;;5038768;28;20059;-70
2021/09/23 12:43:20;;;;;;;14.27;3.40;;;23.90;55.80;;;;;;5041038;28;21055;-70